KPMH/PMH METAR and TAF weather

Enter ICAO airport designator
Station Type Date Time Source
KPMH METAR 2022/12/10 01:55 UTC NOAA

KPMH 100155Z AUTO 00000KT 10SM OVC013 11/06 A3012 RMK AO2 T01080058


Station Type Date Time Source
KPMH Decoded METAR 2022/12/10 01:55 UTC NOAA

Station name not available
Dec 09, 2022 - 08:55 PM EST / 2022.12.10 0155 UTC
Wind: Calm:0
Visibility: 10 mile(s):0
Sky conditions: overcast
Temperature: 51.4 F (10.8 C)
Dew Point: 42.4 F (5.8 C)
Relative Humidity: 71%
Pressure (altimeter): 30.12 in. Hg (1019 hPa)
ob: KPMH 100155Z AUTO 00000KT 10SM OVC013 11/06 A3012 RMK AO2 T01080058
cycle: 2

Station Type Date Time Source
KPMH TAF UTC NOAA

Error!

Example: see airport list